Terminal Aerodrome Forecast
Issued by NWS Tampa Bay Area, FL

Home | Current Version | Previous Version | Text Only | Print | Product List | Glossary On
Versions: 1 2 3 4 5 6 7 8 9 10 11 12 13 14 15 16 17 18 19 20 21 22 23
000
FTUS42 KTBW 262300 RRA
TAFFMY
TAF
KFMY 262343Z 2700/2724 32005KT P6SM VCSH FEW007 BKN020 OVC040
      TEMPO 2700/2702 5SM RA BR BKN010
     FM270300 01011KT P6SM SCT010 BKN020
     FM270900 03009KT P6SM SCT007 BKN020
     FM271500 05010KT P6SM VCSH SCT015 OVC035=

USA.gov is the U.S. government's official web portal to all federal, state and local government web resources and services.